Time;durP1;ratioP1;P1;durP2;ratioP2;P2;SDS_P1;SDS_P2;PMS_P1;PMS_P2;Temp;Humidity;BMP_temperature;BMP_pressure;BME280_temperature;BME280_humidity;BME280_pressure;Samples;Min_cycle;Max_cycle;Signal;HPM_P1;HPM_P2
2024/04/18 00:03:59;;;;;;;0.50;0.50;;;;;;;3.36;100.00;101554.06;11062577;26;20052;-73
2024/04/18 00:08:59;;;;;;;0.70;0.70;;;;;;;3.44;100.00;101550.69;11062184;26;20015;-75
2024/04/18 00:13:59;;;;;;;0.60;0.60;;;;;;;3.43;100.00;101552.53;11031598;26;20075;-73
2024/04/18 00:19:00;;;;;;;0.50;0.50;;;;;;;3.44;100.00;101556.03;11060269;26;20014;-74
2024/04/18 00:24:00;;;;;;;0.70;0.70;;;;;;;3.43;100.00;101559.72;11061879;26;20377;-72
2024/04/18 00:29:01;;;;;;;0.63;0.63;;;;;;;3.35;100.00;101567.56;11061807;26;20096;-72
2024/04/18 00:34:01;;;;;;;0.90;0.90;;;;;;;3.31;100.00;101564.31;11066268;26;20012;-73
2024/04/18 00:39:01;;;;;;;0.68;0.68;;;;;;;3.31;100.00;101566.97;11071058;26;20029;-72
2024/04/18 00:44:02;;;;;;;2.58;2.38;;;;;;;3.45;100.00;101569.31;11068477;26;20108;-72
2024/04/18 00:49:02;;;;;;;0.68;0.68;;;;;;;3.52;100.00;101571.44;11069348;26;20019;-72
2024/04/18 00:54:03;;;;;;;0.50;0.50;;;;;;;3.41;100.00;101575.06;11067119;26;20518;-71
2024/04/18 00:59:03;;;;;;;0.80;0.80;;;;;;;3.29;100.00;101574.31;11068197;26;20329;-74
2024/04/18 01:04:03;;;;;;;0.70;0.70;;;;;;;3.22;100.00;101589.19;11036312;26;20009;-73
2024/04/18 01:09:04;;;;;;;5.28;4.85;;;;;;;3.10;100.00;101588.44;11067430;26;19997;-72
2024/04/18 01:14:08;;;;;;;0.60;0.60;;;;;;;3.00;100.00;101595.56;11065085;26;20056;-73
2024/04/18 01:19:12;;;;;;;0.70;0.70;;;;;;;2.88;100.00;101597.44;11066930;26;20001;-72
2024/04/18 01:24:13;;;;;;;0.60;0.60;;;;;;;2.80;100.00;101605.25;11065492;26;20030;-72
2024/04/18 01:29:13;;;;;;;0.70;0.70;;;;;;;2.66;100.00;101600.25;11065294;26;20011;-74
2024/04/18 01:34:14;;;;;;;0.60;0.60;;;;;;;2.61;100.00;101613.13;11065904;26;20318;-71
2024/04/18 01:39:14;;;;;;;0.68;0.68;;;;;;;2.56;100.00;101614.38;11036676;26;20030;-71
2024/04/18 01:44:15;;;;;;;0.70;0.70;;;;;;;2.53;100.00;101625.31;11065999;26;20396;-74
2024/04/18 01:49:15;;;;;;;0.70;0.70;;;;;;;2.45;100.00;101625.09;11067074;26;20306;-74
2024/04/18 01:54:16;;;;;;;0.63;0.63;;;;;;;2.42;100.00;101644.06;11036558;26;20033;-74
2024/04/18 01:59:16;;;;;;;4.22;4.00;;;;;;;2.37;100.00;101637.41;11066577;26;20082;-73
2024/04/18 02:04:17;;;;;;;0.50;0.50;;;;;;;2.37;100.00;101648.97;11064018;26;20052;-72
2024/04/18 02:09:18;;;;;;;0.50;0.50;;;;;;;2.31;100.00;101654.81;11065614;26;19997;-72
2024/04/18 02:14:18;;;;;;;1.25;1.25;;;;;;;2.27;100.00;101661.38;11067608;26;20005;-75
2024/04/18 02:19:19;;;;;;;0.75;0.75;;;;;;;2.24;100.00;101651.78;11065571;26;19993;-73
2024/04/18 02:24:19;;;;;;;0.63;0.63;;;;;;;2.20;100.00;101654.81;11063440;26;19997;-73
2024/04/18 02:29:20;;;;;;;0.60;0.60;;;;;;;2.16;100.00;101672.06;11065931;26;20037;-73
2024/04/18 02:34:20;;;;;;;0.77;0.77;;;;;;;2.12;100.00;101675.97;11066472;26;19997;-74
2024/04/18 02:39:20;;;;;;;0.70;0.70;;;;;;;2.05;100.00;101687.16;11065530;26;20001;-74
2024/04/18 02:44:23;;;;;;;0.80;0.80;;;;;;;2.01;100.00;101687.50;11065094;26;19997;-73
2024/04/18 02:49:23;;;;;;;0.50;0.50;;;;;;;1.96;100.00;101692.38;11064943;26;19997;-73
2024/04/18 02:54:24;;;;;;;0.70;0.70;;;;;;;1.92;100.00;101699.78;11063884;26;20008;-71
2024/04/18 02:59:24;;;;;;;0.80;0.80;;;;;;;1.93;100.00;101706.81;11064992;26;20400;-73
2024/04/18 03:04:24;;;;;;;0.68;0.68;;;;;;;1.93;100.00;101706.81;11066984;26;19996;-74
2024/04/18 03:09:25;;;;;;;0.80;0.80;;;;;;;1.94;100.00;101716.53;11066908;26;19993;-73
2024/04/18 03:14:26;;;;;;;0.70;0.70;;;;;;;1.92;100.00;101709.63;11068837;26;20095;-74
2024/04/18 03:19:26;;;;;;;0.75;0.75;;;;;;;1.95;100.00;101720.06;11062700;26;19997;-73
2024/04/18 03:24:26;;;;;;;0.70;0.70;;;;;;;1.91;100.00;101721.25;11064525;26;19997;-75
2024/04/18 03:29:27;;;;;;;0.65;0.65;;;;;;;1.87;100.00;101726.00;11063316;26;20004;-73
2024/04/18 03:34:27;;;;;;;0.73;0.73;;;;;;;1.89;100.00;101729.41;11063491;26;19997;-74
2024/04/18 03:39:28;;;;;;;0.63;0.63;;;;;;;1.87;100.00;101728.66;11063319;26;20461;-73
2024/04/18 03:44:28;;;;;;;0.90;0.90;;;;;;;1.88;100.00;101727.69;11063426;26;20340;-72
2024/04/18 03:49:29;;;;;;;0.70;0.70;;;;;;;1.89;100.00;101741.91;11062554;26;20003;-73
2024/04/18 03:54:29;;;;;;;0.80;0.80;;;;;;;1.90;100.00;101747.13;11060206;26;19997;-73
2024/04/18 03:59:29;;;;;;;0.70;0.70;;;;;;;1.89;100.00;101752.59;11062690;26;19997;-75
2024/04/18 04:04:30;;;;;;;0.60;0.60;;;;;;;1.85;100.00;101762.66;11061682;26;20475;-73
2024/04/18 04:09:30;;;;;;;0.70;0.70;;;;;;;1.87;100.00;101768.72;11059764;26;20430;-74
2024/04/18 04:14:30;;;;;;;0.73;0.73;;;;;;;2.01;100.00;101768.53;11061285;26;19996;-74
2024/04/18 04:19:31;;;;;;;0.70;0.70;;;;;;;2.16;100.00;101779.78;11062078;26;19997;-75
2024/04/18 04:24:31;;;;;;;0.60;0.60;;;;;;;2.19;100.00;101776.03;11061108;26;20464;-74
2024/04/18 04:29:32;;;;;;;0.80;0.80;;;;;;;2.16;100.00;101782.47;11062155;26;19997;-75
2024/04/18 04:34:32;;;;;;;0.70;0.70;;;;;;;2.21;100.00;101795.47;11061727;26;20005;-71
2024/04/18 04:39:32;;;;;;;0.90;0.90;;;;;;;2.23;100.00;101805.06;11061027;26;20383;-71
2024/04/18 04:44:33;;;;;;;0.82;0.82;;;;;;;2.31;100.00;101807.97;11060560;26;20004;-73
2024/04/18 04:49:33;;;;;;;0.82;0.82;;;;;;;2.61;100.00;101808.34;11058483;26;20401;-72
2024/04/18 04:54:34;;;;;;;0.70;0.70;;;;;;;2.85;100.00;101819.72;11060494;26;20396;-72
2024/04/18 04:59:35;;;;;;;0.80;0.80;;;;;;;2.96;100.00;101816.16;11059374;26;20455;-73
2024/04/18 05:04:35;;;;;;;0.60;0.60;;;;;;;3.03;100.00;101823.59;11059680;26;20009;-70
2024/04/18 05:09:36;;;;;;;0.70;0.70;;;;;;;3.32;100.00;101836.38;11060145;26;20009;-75
2024/04/18 05:14:36;;;;;;;0.80;0.80;;;;;;;3.75;100.00;101845.31;11060471;26;20445;-75
2024/04/18 05:19:36;;;;;;;1.77;1.73;;;;;;;4.09;100.00;101846.81;10990918;26;20001;-73
2024/04/18 05:24:37;;;;;;;0.70;0.70;;;;;;;4.52;100.00;101858.31;10994231;27;20086;-74
2024/04/18 05:34:56;;;;;;;0.50;0.50;;;;;;;5.27;100.00;101860.53;10999360;27;20018;-73
2024/04/18 05:39:57;;;;;;;0.50;0.50;;;;;;;5.33;100.00;101875.25;10999768;26;20093;-74
2024/04/18 05:44:57;;;;;;;0.50;0.50;;;;;;;5.39;100.00;101882.72;11000145;26;20414;-74
2024/04/18 05:49:58;;;;;;;0.60;0.60;;;;;;;5.53;100.00;101882.31;10995352;26;20004;-72
2024/04/18 05:54:58;;;;;;;0.52;0.52;;;;;;;5.53;100.00;101884.16;10994442;26;20009;-74
2024/04/18 05:59:58;;;;;;;0.70;0.70;;;;;;;7.81;100.00;101888.25;10995176;26;20009;-72
2024/04/18 06:04:59;;;;;;;0.70;0.70;;;;;;;9.96;100.00;101899.72;11022338;26;20429;-73
2024/04/18 06:09:59;;;;;;;0.47;0.47;;;;;;;9.25;100.00;101908.38;10994460;26;20320;-72
2024/04/18 06:15:00;;;;;;;0.40;0.40;;;;;;;8.35;100.00;101916.81;10994809;26;19998;-75
2024/04/18 06:20:00;;;;;;;0.60;0.60;;;;;;;8.19;100.00;101915.88;10991851;27;20001;-73
2024/04/18 06:25:01;;;;;;;0.60;0.60;;;;;;;7.97;100.00;101920.75;10994485;26;20123;-74
2024/04/18 06:30:01;;;;;;;2.35;2.25;;;;;;;8.16;100.00;101927.81;10992719;26;20002;-73
2024/04/18 06:35:02;;;;;;;0.68;0.68;;;;;;;9.91;100.00;101929.13;10993841;26;20012;-74
2024/04/18 06:40:02;;;;;;;0.60;0.60;;;;;;;12.04;100.00;101933.88;10992793;26;20080;-72
2024/04/18 06:45:03;;;;;;;0.40;0.40;;;;;;;13.09;100.00;101930.25;10992511;26;20093;-73
2024/04/18 06:50:04;;;;;;;1.50;1.50;;;;;;;12.82;100.00;101938.03;10992773;26;19998;-72
2024/04/18 06:55:05;;;;;;;0.47;0.47;;;;;;;13.22;100.00;101952.19;10992688;26;20414;-72
2024/04/18 07:00:05;;;;;;;0.68;0.68;;;;;;;13.86;100.00;101943.34;10992964;26;19997;-72
2024/04/18 07:05:06;;;;;;;0.50;0.50;;;;;;;14.58;100.00;101940.44;10992233;26;19994;-71
2024/04/18 07:10:06;;;;;;;0.50;0.50;;;;;;;15.30;100.00;101947.34;10991803;26;19998;-72
2024/04/18 07:15:07;;;;;;;0.35;0.35;;;;;;;15.52;100.00;101944.50;10989718;27;20364;-71
2024/04/18 07:20:09;;;;;;;0.32;0.32;;;;;;;15.62;100.00;101941.38;11018555;26;20018;-72
2024/04/18 07:25:09;;;;;;;0.70;0.70;;;;;;;16.09;100.00;101953.28;10992254;26;20009;-71
2024/04/18 07:30:10;;;;;;;0.30;0.30;;;;;;;15.44;100.00;101955.59;10992861;26;19998;-72
2024/04/18 07:35:11;;;;;;;1.33;1.27;;;;;;;13.30;100.00;101962.97;10991908;26;20001;-72
2024/04/18 07:40:15;;;;;;;0.35;0.35;;;;;;;11.16;100.00;101989.25;10991121;26;20079;-74
2024/04/18 07:45:16;;;;;;;0.70;0.70;;;;;;;9.52;100.00;101999.22;10989674;26;20009;-77
2024/04/18 07:50:16;;;;;;;0.30;0.30;;;;;;;9.03;100.00;101990.84;10995083;27;20013;-77
2024/04/18 07:55:17;;;;;;;0.50;0.50;;;;;;;9.03;100.00;101998.97;10993132;26;19998;-73
2024/04/18 08:00:17;;;;;;;0.40;0.40;;;;;;;9.11;100.00;102001.72;10991810;27;20013;-72
2024/04/18 08:05:18;;;;;;;0.30;0.30;;;;;;;9.36;100.00;102018.91;10993988;26;19998;-73
2024/04/18 08:10:18;;;;;;;0.50;0.50;;;;;;;10.36;100.00;102024.44;10998935;26;19998;-75
2024/04/18 08:15:18;;;;;;;0.40;0.40;;;;;;;12.54;100.00;102022.06;10997994;26;19998;-74
2024/04/18 08:20:19;;;;;;;0.30;0.30;;;;;;;13.96;100.00;102022.81;10989493;27;20012;-71
2024/04/18 08:25:19;;;;;;;0.50;0.50;;;;;;;13.33;100.00;102022.44;10989915;26;20296;-72
2024/04/18 08:30:20;;;;;;;0.30;0.30;;;;;;;14.31;100.00;102032.00;10989860;26;20037;-70
2024/04/18 08:35:20;;;;;;;0.77;0.77;;;;;;;13.32;100.00;102030.81;10988009;26;20563;-70
2024/04/18 08:40:20;;;;;;;0.30;0.30;;;;;;;14.16;100.00;102032.03;10989705;26;20029;-70
2024/04/18 08:45:24;;;;;;;0.50;0.50;;;;;;;13.41;100.00;102035.13;10988995;26;20448;-70
2024/04/18 08:50:24;;;;;;;0.60;0.60;;;;;;;13.08;100.00;102037.31;10989181;26;20038;-71
2024/04/18 08:55:25;;;;;;;0.30;0.30;;;;;;;12.27;100.00;102042.47;10963982;27;20013;-69
2024/04/18 09:00:25;;;;;;;1.50;1.40;;;;;;;11.49;100.00;102048.81;10994397;27;20012;-70
2024/04/18 09:05:25;;;;;;;0.40;0.40;;;;;;;13.57;100.00;102053.13;10996412;26;20013;-70
2024/04/18 09:10:28;;;;;;;0.50;0.50;;;;;;;16.51;100.00;102045.84;10995172;26;20371;-70
2024/04/18 09:15:30;;;;;;;0.30;0.30;;;;;;;15.08;100.00;102044.81;10995958;26;20076;-72
2024/04/18 09:20:34;;;;;;;0.40;0.40;;;;;;;13.45;100.00;102045.44;11023140;26;20313;-71
2024/04/18 09:25:35;;;;;;;0.40;0.40;;;;;;;12.48;100.00;102049.97;10995118;26;20002;-70
2024/04/18 09:30:39;;;;;;;0.40;0.40;;;;;;;11.67;100.00;102052.09;10965479;27;19997;-69
2024/04/18 09:35:39;;;;;;;0.40;0.40;;;;;;;13.36;100.00;102049.28;10994634;26;19998;-69
2024/04/18 09:40:43;;;;;;;5.40;1.98;;;;;;;16.17;100.00;102041.34;10966332;27;19998;-70
2024/04/18 09:46:00;;;;;;;3.08;0.80;;;;;;;14.33;100.00;102057.19;10993092;27;20438;-71
2024/04/18 09:51:02;;;;;;;1.38;1.35;;;;;;;15.50;100.00;102042.13;10993172;26;20002;-69
2024/04/18 09:56:03;;;;;;;18.33;2.13;;;;;;;17.41;100.00;102053.56;10992998;27;20088;-71
2024/04/18 10:01:04;;;;;;;1.30;1.13;;;;;;;18.12;100.00;102058.16;10993737;27;20067;-73
2024/04/18 10:06:06;;;;;;;1.25;1.15;;;;;;;17.44;100.00;102056.72;10993061;26;20026;-70
2024/04/18 10:11:07;;;;;;;1.30;1.20;;;;;;;18.17;100.00;102055.59;10992371;27;20441;-70
2024/04/18 10:16:11;;;;;;;0.98;0.98;;;;;;;18.56;100.00;102053.66;10994751;26;20009;-70
2024/04/18 10:21:17;;;;;;;1.17;1.08;;;;;;;19.46;100.00;102050.50;10992330;26;19994;-71
2024/04/18 10:26:18;;;;;;;2.05;1.25;;;;;;;19.02;100.00;102055.19;10993710;26;20005;-70
2024/04/18 10:31:18;;;;;;;1.45;0.70;;;;;;;17.44;100.00;102056.72;10993466;26;20029;-69
2024/04/18 10:36:19;;;;;;;1.17;1.08;;;;;;;16.39;100.00;102061.16;10992831;26;19998;-71
2024/04/18 10:41:22;;;;;;;1.85;1.52;;;;;;;17.59;100.00;102069.34;10994735;27;20004;-69
2024/04/18 10:46:23;;;;;;;4.55;0.77;;;;;;;18.64;100.00;102067.09;11000415;26;20029;-72
2024/04/18 10:51:25;;;;;;;5.43;1.05;;;;;;;18.06;100.00;102062.63;10966208;27;20347;-73
2024/04/18 10:56:25;;;;;;;1.00;1.00;;;;;;;17.69;100.00;102072.44;10963271;27;20013;-73
2024/04/18 11:01:26;;;;;;;0.73;0.73;;;;;;;18.54;100.00;102064.03;10990847;27;20457;-72
2024/04/18 11:06:26;;;;;;;2.65;1.27;;;;;;;18.24;100.00;102056.38;10993019;26;20008;-72
2024/04/18 11:11:27;;;;;;;1.17;1.13;;;;;;;19.61;100.00;102055.63;10991116;27;20040;-72
2024/04/18 11:16:27;;;;;;;1.02;0.98;;;;;;;20.08;100.00;102050.41;10992916;26;20039;-73
2024/04/18 11:21:28;;;;;;;0.70;0.70;;;;;;;18.17;100.00;102061.09;10991690;26;20051;-74
2024/04/18 11:26:29;;;;;;;6.63;1.08;;;;;;;17.12;100.00;102063.94;10962206;27;20009;-72
2024/04/18 11:31:30;;;;;;;1.85;0.90;;;;;;;17.15;100.00;102068.16;10990469;27;20033;-75
2024/04/18 11:36:30;;;;;;;4.20;1.52;;;;;;;18.81;100.00;102053.69;10991422;26;20009;-71
2024/04/18 11:41:33;;;;;;;1.98;1.02;;;;;;;18.57;100.00;102053.44;10989346;27;20017;-70
2024/04/18 11:46:34;;;;;;;3.47;1.00;;;;;;;17.33;100.00;102053.81;10991561;26;19998;-72
2024/04/18 11:51:34;;;;;;;1.15;1.10;;;;;;;17.58;100.00;102049.31;10961762;27;20052;-71
2024/04/18 11:56:35;;;;;;;1.48;1.23;;;;;;;19.55;100.00;102051.88;10994364;26;20006;-73
2024/04/18 12:01:35;;;;;;;3.80;1.20;;;;;;;19.10;100.00;102060.38;10993139;26;20002;-75
2024/04/18 12:06:35;;;;;;;0.90;0.90;;;;;;;19.48;100.00;102062.09;10991989;26;20014;-74
2024/04/18 12:11:36;;;;;;;1.00;0.77;;;;;;;17.51;100.00;102072.28;10991341;26;19998;-71
2024/04/18 12:16:36;;;;;;;1.45;1.35;;;;;;;17.06;100.00;102070.25;10991112;26;20013;-72
2024/04/18 12:21:37;;;;;;;2.20;1.08;;;;;;;17.52;100.00;102066.63;10990671;26;20021;-73
2024/04/18 12:26:38;;;;;;;1.75;0.90;;;;;;;17.27;100.00;102080.16;10989286;27;20009;-73
2024/04/18 12:31:39;;;;;;;2.20;1.27;;;;;;;16.19;100.00;102072.06;10996057;27;20012;-73
2024/04/18 12:36:39;;;;;;;0.63;0.63;;;;;;;15.76;100.00;102093.31;10997628;26;20128;-71
2024/04/18 12:41:40;;;;;;;0.98;0.90;;;;;;;14.75;100.00;102104.56;10997050;26;20279;-74
2024/04/18 12:46:40;;;;;;;0.95;0.95;;;;;;;13.95;100.00;102103.69;10995565;27;20388;-72
2024/04/18 12:51:41;;;;;;;2.15;1.73;;;;;;;13.65;100.00;102097.41;11023804;26;20080;-71
2024/04/18 12:56:41;;;;;;;1.15;1.13;;;;;;;13.40;100.00;102094.16;10997327;26;20035;-71
2024/04/18 13:01:41;;;;;;;1.30;1.20;;;;;;;13.37;100.00;102082.78;10998402;26;20005;-72
2024/04/18 13:06:42;;;;;;;2.22;0.85;;;;;;;13.50;100.00;102074.81;10998224;26;19997;-73
2024/04/18 13:11:44;;;;;;;0.90;0.85;;;;;;;13.68;100.00;102074.41;10997316;27;20006;-73
2024/04/18 13:16:45;;;;;;;1.33;1.05;;;;;;;14.42;100.00;102066.03;11000259;26;20320;-74
2024/04/18 13:21:46;;;;;;;1.00;1.00;;;;;;;14.29;100.00;102066.75;11001197;26;20002;-73
2024/04/18 13:26:46;;;;;;;2.60;1.05;;;;;;;14.02;100.00;102071.06;11000497;26;20001;-73
2024/04/18 13:31:47;;;;;;;1.80;1.23;;;;;;;13.85;100.00;102070.47;10998158;27;20075;-71
2024/04/18 13:36:47;;;;;;;3.80;1.80;;;;;;;14.86;100.00;102065.84;10998657;26;20430;-72
2024/04/18 13:41:49;;;;;;;4.40;1.00;;;;;;;15.35;100.00;102073.16;10966800;27;20074;-73
2024/04/18 13:46:51;;;;;;;1.63;1.50;;;;;;;15.56;100.00;102074.94;10997335;26;20001;-75
2024/04/18 13:51:51;;;;;;;2.47;1.10;;;;;;;15.82;100.00;102065.19;10968234;27;20012;-72
2024/04/18 13:56:52;;;;;;;1.13;1.13;;;;;;;15.77;100.00;102054.91;10998085;26;20366;-74
2024/04/18 14:01:52;;;;;;;1.52;1.42;;;;;;;15.25;100.00;102055.41;10994689;27;20013;-73
2024/04/18 14:06:52;;;;;;;6.22;1.95;;;;;;;14.65;100.00;102047.66;10997690;26;20005;-73
2024/04/18 14:11:53;;;;;;;5.80;1.95;;;;;;;15.49;100.00;102038.56;10966998;27;19997;-74
2024/04/18 14:22:12;;;;;;;1.58;1.48;;;;;;;15.03;100.00;102041.88;10996998;27;20002;-74
2024/04/18 14:27:13;;;;;;;3.03;2.15;;;;;;;14.58;100.00;102034.97;10994364;27;20002;-74
2024/04/18 14:32:13;;;;;;;2.38;2.17;;;;;;;14.76;100.00;102035.34;10994005;26;20006;-73
2024/04/18 14:37:17;;;;;;;1.17;1.00;;;;;;;14.89;100.00;102029.16;11020662;26;20086;-72
2024/04/18 14:42:17;;;;;;;2.22;1.52;;;;;;;14.67;100.00;102016.63;10993244;26;20024;-72
2024/04/18 14:47:18;;;;;;;1.25;1.25;;;;;;;14.95;100.00;102022.91;11020092;26;19998;-75
2024/04/18 14:52:18;;;;;;;2.40;0.90;;;;;;;14.82;100.00;102020.94;10962160;27;20034;-74
2024/04/18 14:57:19;;;;;;;5.45;1.67;;;;;;;14.32;100.00;102020.03;10991641;26;20033;-72
2024/04/18 15:02:19;;;;;;;1.63;0.95;;;;;;;13.84;100.00;102024.34;11020335;26;19998;-71
2024/04/18 15:07:20;;;;;;;5.45;1.63;;;;;;;13.55;100.00;102022.53;10993311;26;19998;-71
2024/04/18 15:12:22;;;;;;;4.00;1.88;;;;;;;13.24;100.00;102032.59;10964022;27;20073;-73
2024/04/18 15:17:24;;;;;;;1.45;1.35;;;;;;;13.29;100.00;102032.03;10993546;26;20002;-72
2024/04/18 15:22:24;;;;;;;3.90;2.05;;;;;;;13.12;100.00;102028.63;10991234;27;20128;-71
2024/04/18 15:27:25;;;;;;;4.50;1.10;;;;;;;12.90;100.00;102034.97;10991750;26;20002;-73
2024/04/18 15:32:25;;;;;;;4.72;1.92;;;;;;;12.40;100.00;102033.72;10991294;26;20038;-73
2024/04/18 15:37:25;;;;;;;1.92;1.63;;;;;;;12.00;100.00;102024.84;10990557;27;20009;-70
2024/04/18 15:42:26;;;;;;;1.60;1.50;;;;;;;11.94;100.00;102025.56;10993174;26;20104;-72
2024/04/18 15:47:26;;;;;;;6.90;1.83;;;;;;;11.87;100.00;102014.56;10994732;26;20341;-71
2024/04/18 15:52:29;;;;;;;4.22;2.08;;;;;;;11.70;100.00;102010.22;10993058;27;20001;-73
2024/04/18 15:57:29;;;;;;;7.13;1.88;;;;;;;11.61;100.00;102009.41;10991594;26;19993;-72
2024/04/18 16:02:30;;;;;;;2.53;1.75;;;;;;;11.70;100.00;102005.63;10989659;26;20434;-73
2024/04/18 16:07:30;;;;;;;1.25;1.15;;;;;;;11.77;100.00;101992.19;10989062;26;20002;-73
2024/04/18 16:12:30;;;;;;;4.03;1.08;;;;;;;11.62;100.00;101994.84;10988505;26;20012;-71
2024/04/18 16:17:32;;;;;;;2.78;2.13;;;;;;;11.27;100.00;101990.75;10990142;26;20008;-72
2024/04/18 16:22:32;;;;;;;3.70;1.65;;;;;;;11.11;100.00;101983.53;10989072;27;20008;-73
2024/04/18 16:27:33;;;;;;;1.08;1.02;;;;;;;11.07;100.00;101983.03;10991602;27;20013;-71
2024/04/18 16:32:34;;;;;;;8.27;1.75;;;;;;;10.97;100.00;101973.38;10990761;27;19998;-71
2024/04/18 16:37:39;;;;;;;8.90;2.13;;;;;;;10.90;100.00;101976.78;10990707;26;20005;-70
2024/04/18 16:42:39;;;;;;;1.60;1.50;;;;;;;10.93;100.00;101979.16;10989746;26;20070;-72
2024/04/18 16:47:39;;;;;;;11.00;1.60;;;;;;;10.95;100.00;101970.88;10987905;27;20093;-72
2024/04/18 16:52:40;;;;;;;3.85;1.85;;;;;;;10.87;100.00;101969.00;10987259;27;20008;-71
2024/04/18 16:57:40;;;;;;;5.20;1.50;;;;;;;10.76;100.00;101965.84;10989002;26;20010;-71
2024/04/18 17:02:41;;;;;;;2.53;1.40;;;;;;;10.56;100.00;101954.50;11016352;26;20404;-70
2024/04/18 17:07:44;;;;;;;1.70;1.60;;;;;;;10.55;100.00;101948.25;10990508;26;20005;-71
2024/04/18 17:12:45;;;;;;;1.58;1.45;;;;;;;10.37;100.00;101953.88;10989501;26;20005;-74
2024/04/18 17:17:45;;;;;;;5.43;1.70;;;;;;;10.42;100.00;101948.78;10996099;26;20388;-70
2024/04/18 17:22:45;;;;;;;1.95;1.02;;;;;;;10.34;100.00;101943.38;10995999;26;20029;-73
2024/04/18 17:27:46;;;;;;;3.22;1.25;;;;;;;10.32;100.00;101947.28;10965891;27;20001;-72
2024/04/18 17:32:46;;;;;;;1.85;1.30;;;;;;;10.21;100.00;101938.44;10996013;26;20002;-73
2024/04/18 17:37:47;;;;;;;1.20;0.95;;;;;;;10.04;100.00;101919.66;10996889;26;20079;-71
2024/04/18 17:42:48;;;;;;;1.17;0.85;;;;;;;9.90;100.00;101922.03;10997041;27;19993;-71
2024/04/18 17:47:48;;;;;;;6.57;2.10;;;;;;;9.81;100.00;101912.22;10996600;26;20088;-73
2024/04/18 17:52:49;;;;;;;2.85;1.20;;;;;;;9.73;100.00;101907.66;10995836;26;20042;-72
2024/04/18 17:57:49;;;;;;;10.13;1.52;;;;;;;9.69;100.00;101900.03;10996436;26;19997;-71
2024/04/18 18:02:49;;;;;;;2.03;1.33;;;;;;;9.57;100.00;101899.50;10995723;26;20009;-72
2024/04/18 18:07:50;;;;;;;4.00;1.70;;;;;;;9.42;100.00;101909.28;10994393;26;20062;-72
2024/04/18 18:12:50;;;;;;;5.72;1.85;;;;;;;9.38;100.00;101903.38;10996713;26;20009;-73
2024/04/18 18:17:51;;;;;;;2.85;1.83;;;;;;;9.35;100.00;101895.59;10998626;26;20482;-74
2024/04/18 18:22:52;;;;;;;5.32;1.67;;;;;;;9.26;100.00;101901.97;11001386;26;20152;-73
2024/04/18 18:27:52;;;;;;;7.13;2.08;;;;;;;9.08;100.00;101881.28;10999827;26;20001;-72
2024/04/18 18:32:53;;;;;;;5.93;1.90;;;;;;;9.12;100.00;101897.19;10995956;26;20002;-71
2024/04/18 18:37:54;;;;;;;6.95;1.95;;;;;;;9.11;100.00;101898.19;10997110;26;20014;-72
2024/04/18 18:42:55;;;;;;;2.90;1.33;;;;;;;9.02;100.00;101883.81;10996529;26;20093;-72
2024/04/18 18:47:55;;;;;;;1.67;1.58;;;;;;;9.06;100.00;101882.47;10993198;26;20102;-74
2024/04/18 18:52:56;;;;;;;6.57;2.17;;;;;;;9.00;100.00;101870.47;11002946;27;20017;-76
2024/04/18 18:57:56;;;;;;;1.65;1.45;;;;;;;9.03;100.00;101863.88;11001272;26;20005;-76
2024/04/18 19:02:56;;;;;;;8.45;1.88;;;;;;;8.98;100.00;101844.63;10995751;27;20037;-73
2024/04/18 19:07:57;;;;;;;3.83;1.92;;;;;;;8.93;100.00;101860.47;10991361;27;20001;-75
2024/04/18 19:12:58;;;;;;;1.23;1.13;;;;;;;8.94;100.00;101856.78;10995386;27;20013;-74
2024/04/18 19:17:58;;;;;;;1.50;1.30;;;;;;;8.96;100.00;101852.03;10996118;26;20009;-74
2024/04/18 19:22:58;;;;;;;1.95;1.58;;;;;;;8.95;100.00;101837.69;10992891;26;20291;-70
2024/04/18 19:27:59;;;;;;;2.33;2.08;;;;;;;9.02;100.00;101824.38;10992559;26;20017;-68
2024/04/18 19:32:59;;;;;;;5.53;2.65;;;;;;;8.93;100.00;101806.44;10990193;26;19997;-71
2024/04/18 19:38:00;;;;;;;3.47;1.63;;;;;;;9.03;100.00;101807.13;10994212;26;19998;-74
2024/04/18 19:43:00;;;;;;;5.80;1.77;;;;;;;8.98;100.00;101802.25;10993030;26;20032;-72
2024/04/18 19:48:01;;;;;;;1.80;1.63;;;;;;;8.98;100.00;101802.25;10990072;26;20005;-72
2024/04/18 19:53:01;;;;;;;3.67;2.53;;;;;;;8.90;100.00;101794.09;10990577;26;20001;-72
2024/04/18 19:58:02;;;;;;;3.97;2.33;;;;;;;8.80;100.00;101761.84;10990455;27;19994;-71
2024/04/18 20:03:02;;;;;;;12.55;2.88;;;;;;;8.80;100.00;101766.41;10992104;26;19998;-70
2024/04/18 20:08:03;;;;;;;1.20;1.10;;;;;;;8.78;100.00;101761.19;10991305;26;20012;-71
2024/04/18 20:13:04;;;;;;;3.45;1.00;;;;;;;8.76;100.00;101759.66;10990585;26;20017;-72
2024/04/18 20:18:06;;;;;;;4.78;2.38;;;;;;;8.77;100.00;101758.63;10989984;26;20005;-70
2024/04/18 20:23:07;;;;;;;2.83;1.70;;;;;;;8.76;100.00;101746.13;10990719;26;20017;-72
2024/04/18 20:28:07;;;;;;;2.67;1.30;;;;;;;8.70;100.00;101734.13;10990374;26;20037;-71
2024/04/18 20:33:07;;;;;;;11.20;2.20;;;;;;;8.74;100.00;101726.53;10989148;27;20182;-70
2024/04/18 20:38:08;;;;;;;5.35;2.50;;;;;;;8.74;100.00;101716.63;10988249;27;20030;-69
2024/04/18 20:43:08;;;;;;;5.97;2.13;;;;;;;8.75;100.00;101704.78;10988072;27;20439;-71
2024/04/18 20:48:08;;;;;;;4.75;2.35;;;;;;;8.85;100.00;101702.78;10992227;27;20006;-70
2024/04/18 20:53:09;;;;;;;10.05;2.60;;;;;;;8.94;100.00;101702.81;11001003;26;19994;-72
2024/04/18 20:58:09;;;;;;;1.70;1.60;;;;;;;8.99;100.00;101679.66;11001042;26;19997;-70
2024/04/18 21:03:10;;;;;;;3.15;1.98;;;;;;;8.93;100.00;101668.69;10995849;26;20009;-70
2024/04/18 21:08:10;;;;;;;2.35;1.60;;;;;;;8.93;100.00;101668.69;10995465;26;20079;-71
2024/04/18 21:13:12;;;;;;;8.52;2.78;;;;;;;8.89;100.00;101665.47;10994723;27;20088;-69
2024/04/18 21:18:14;;;;;;;11.00;2.42;;;;;;;8.75;100.00;101639.13;10995046;26;20426;-70
2024/04/18 21:23:14;;;;;;;4.00;2.85;;;;;;;8.77;100.00;101631.69;10994899;26;19994;-71
2024/04/18 21:28:14;;;;;;;7.10;2.75;;;;;;;8.70;100.00;101625.28;10993456;26;20001;-69
2024/04/18 21:33:15;;;;;;;5.30;2.22;;;;;;;8.72;100.00;101607.06;10965482;27;20063;-72
2024/04/18 21:38:16;;;;;;;5.40;1.80;;;;;;;8.74;100.00;101622.09;10994524;26;20000;-71
2024/04/18 21:43:16;;;;;;;0.30;0.30;;;;;;;8.35;100.00;101649.66;10994970;26;20001;-73
2024/04/18 21:48:17;;;;;;;0.40;0.40;;;;;;;8.01;100.00;101611.09;10964772;27;20001;-76
2024/04/18 21:53:17;;;;;;;0.30;0.30;;;;;;;7.81;100.00;101610.50;10993373;27;20068;-76
2024/04/18 21:58:17;;;;;;;0.43;0.43;;;;;;;7.66;100.00;101577.94;10995016;26;20041;-77
2024/04/18 22:03:18;;;;;;;0.35;0.35;;;;;;;7.69;100.00;101567.69;10992632;27;19998;-78
2024/04/18 22:08:18;;;;;;;0.45;0.45;;;;;;;7.80;100.00;101547.66;10994751;26;20008;-76
2024/04/18 22:13:19;;;;;;;1.10;1.10;;;;;;;7.86;100.00;101530.00;10994872;26;20453;-77
2024/04/18 22:18:19;;;;;;;0.40;0.40;;;;;;;7.96;100.00;101519.91;10995650;26;19998;-76
2024/04/18 22:23:19;;;;;;;0.32;0.32;;;;;;;8.02;100.00;101513.84;10994978;26;19993;-76
2024/04/18 22:28:20;;;;;;;0.40;0.40;;;;;;;8.03;100.00;101523.63;10993098;27;20465;-76
2024/04/18 22:33:20;;;;;;;0.40;0.40;;;;;;;7.96;100.00;101527.16;10996086;26;20009;-75
2024/04/18 22:38:21;;;;;;;0.40;0.40;;;;;;;7.93;100.00;101514.84;10995104;26;19997;-76
2024/04/18 22:43:21;;;;;;;0.40;0.40;;;;;;;7.82;100.00;101497.13;10993471;26;20329;-74
2024/04/18 22:48:21;;;;;;;0.40;0.40;;;;;;;7.85;100.00;101494.09;10993213;26;20451;-74
2024/04/18 22:53:22;;;;;;;0.40;0.40;;;;;;;7.80;100.00;101477.56;10993037;26;20004;-75
2024/04/18 22:58:22;;;;;;;0.73;0.73;;;;;;;7.72;100.00;101477.53;10993461;26;20075;-73
2024/04/18 23:03:23;;;;;;;0.30;0.30;;;;;;;7.66;100.00;101462.03;10993328;26;20007;-75
2024/04/18 23:08:23;;;;;;;0.40;0.40;;;;;;;7.52;100.00;101455.41;10994127;26;19998;-74